Almino Afonso, Brazil
Current Conditions -  °F | °C
As of 10:00 AM on Monday 24 Nov 2014 (Local Time) from SBJU Reporting Station
Scattered Clouds Scattered Clouds  
Wind Chill: 88°   Ceiling: Unl
Heat Index: 91°   Visibility: 6mi
Dew Point: 68°   Wind: 3mph
Humidity: 52%   Direction: 170°S
Pressure: 30.09"   Gusts: NA
Location:  6.15°S, 37.77°W
Report Text: SBJU 241300Z 17003KT 9999 SCT020 31/20 Q1019
Loading
Personal Weather Stations






























Interactive Weather Map New forecast layout! Learn more

10-Day Weather Forecast

Advertisements
Track Severe Weather on mobile